sensor_id;sensor_type;location;lat;lon;timestamp;P1;durP1;ratioP1;P2;durP2;ratioP2
3487;SDS011;38546;48.170;11.724;2023-09-07T00:00:20;13.43;;;8.53;;
3487;SDS011;38546;48.170;11.724;2023-09-07T00:03:09;8.67;;;7.80;;
3487;SDS011;38546;48.170;11.724;2023-09-07T00:06:00;10.50;;;8.23;;
3487;SDS011;38546;48.170;11.724;2023-09-07T00:08:50;11.30;;;8.20;;
3487;SDS011;38546;48.170;11.724;2023-09-07T00:11:39;13.70;;;10.53;;
3487;SDS011;38546;48.170;11.724;2023-09-07T00:14:28;15.70;;;10.27;;
3487;SDS011;38546;48.170;11.724;2023-09-07T00:17:17;12.20;;;9.90;;
3487;SDS011;38546;48.170;11.724;2023-09-07T00:20:06;11.83;;;9.70;;
3487;SDS011;38546;48.170;11.724;2023-09-07T00:23:04;11.30;;;9.60;;
3487;SDS011;38546;48.170;11.724;2023-09-07T00:25:54;10.70;;;9.03;;
3487;SDS011;38546;48.170;11.724;2023-09-07T00:28:43;8.93;;;8.00;;
3487;SDS011;38546;48.170;11.724;2023-09-07T00:31:32;10.60;;;8.27;;
3487;SDS011;38546;48.170;11.724;2023-09-07T00:34:21;11.70;;;8.80;;
3487;SDS011;38546;48.170;11.724;2023-09-07T00:37:11;13.33;;;9.00;;
3487;SDS011;38546;48.170;11.724;2023-09-07T00:40:00;9.50;;;8.50;;
3487;SDS011;38546;48.170;11.724;2023-09-07T00:42:49;11.37;;;8.13;;
3487;SDS011;38546;48.170;11.724;2023-09-07T00:45:38;9.77;;;8.27;;
3487;SDS011;38546;48.170;11.724;2023-09-07T00:48:28;11.07;;;8.77;;
3487;SDS011;38546;48.170;11.724;2023-09-07T00:51:17;11.37;;;9.37;;
3487;SDS011;38546;48.170;11.724;2023-09-07T00:54:07;11.23;;;9.27;;
3487;SDS011;38546;48.170;11.724;2023-09-07T00:56:56;10.50;;;9.10;;
3487;SDS011;38546;48.170;11.724;2023-09-07T00:59:45;15.27;;;10.13;;
3487;SDS011;38546;48.170;11.724;2023-09-07T01:02:35;13.40;;;9.57;;
3487;SDS011;38546;48.170;11.724;2023-09-07T01:05:29;13.20;;;9.40;;
3487;SDS011;38546;48.170;11.724;2023-09-07T01:08:51;12.80;;;10.13;;
3487;SDS011;38546;48.170;11.724;2023-09-07T01:11:47;15.00;;;10.60;;
3487;SDS011;38546;48.170;11.724;2023-09-07T01:14:36;14.57;;;10.07;;
3487;SDS011;38546;48.170;11.724;2023-09-07T01:17:25;10.60;;;8.50;;
3487;SDS011;38546;48.170;11.724;2023-09-07T01:20:16;10.73;;;8.60;;
3487;SDS011;38546;48.170;11.724;2023-09-07T01:23:07;11.07;;;9.40;;
3487;SDS011;38546;48.170;11.724;2023-09-07T01:25:56;12.57;;;9.40;;
3487;SDS011;38546;48.170;11.724;2023-09-07T01:28:47;11.13;;;8.97;;
3487;SDS011;38546;48.170;11.724;2023-09-07T01:31:37;12.97;;;9.87;;
3487;SDS011;38546;48.170;11.724;2023-09-07T01:34:26;12.80;;;9.77;;
3487;SDS011;38546;48.170;11.724;2023-09-07T01:37:15;11.53;;;8.40;;
3487;SDS011;38546;48.170;11.724;2023-09-07T01:40:04;13.03;;;9.93;;
3487;SDS011;38546;48.170;11.724;2023-09-07T01:42:55;10.13;;;8.77;;
3487;SDS011;38546;48.170;11.724;2023-09-07T01:45:44;12.70;;;9.27;;
3487;SDS011;38546;48.170;11.724;2023-09-07T01:48:34;10.93;;;9.30;;
3487;SDS011;38546;48.170;11.724;2023-09-07T01:51:23;9.73;;;8.33;;
3487;SDS011;38546;48.170;11.724;2023-09-07T01:54:16;13.73;;;9.70;;
3487;SDS011;38546;48.170;11.724;2023-09-07T01:57:04;12.67;;;9.50;;
3487;SDS011;38546;48.170;11.724;2023-09-07T01:59:53;10.83;;;8.63;;
3487;SDS011;38546;48.170;11.724;2023-09-07T02:02:42;11.87;;;9.50;;
3487;SDS011;38546;48.170;11.724;2023-09-07T02:05:31;10.97;;;8.43;;
3487;SDS011;38546;48.170;11.724;2023-09-07T02:08:21;12.33;;;8.70;;
3487;SDS011;38546;48.170;11.724;2023-09-07T02:11:10;10.07;;;8.70;;
3487;SDS011;38546;48.170;11.724;2023-09-07T02:13:59;14.40;;;9.00;;
3487;SDS011;38546;48.170;11.724;2023-09-07T02:16:48;12.40;;;9.63;;
3487;SDS011;38546;48.170;11.724;2023-09-07T02:19:37;13.27;;;9.80;;
3487;SDS011;38546;48.170;11.724;2023-09-07T02:22:26;13.27;;;9.43;;
3487;SDS011;38546;48.170;11.724;2023-09-07T02:25:15;11.83;;;8.67;;
3487;SDS011;38546;48.170;11.724;2023-09-07T02:28:05;24.23;;;9.10;;
3487;SDS011;38546;48.170;11.724;2023-09-07T02:30:54;10.23;;;8.20;;
3487;SDS011;38546;48.170;11.724;2023-09-07T02:33:43;9.40;;;7.77;;
3487;SDS011;38546;48.170;11.724;2023-09-07T02:36:33;10.50;;;7.43;;
3487;SDS011;38546;48.170;11.724;2023-09-07T02:39:24;9.77;;;8.47;;
3487;SDS011;38546;48.170;11.724;2023-09-07T02:42:16;9.50;;;7.63;;
3487;SDS011;38546;48.170;11.724;2023-09-07T02:45:05;11.83;;;8.83;;
3487;SDS011;38546;48.170;11.724;2023-09-07T02:47:55;14.60;;;10.03;;
3487;SDS011;38546;48.170;11.724;2023-09-07T02:50:44;12.80;;;9.57;;
3487;SDS011;38546;48.170;11.724;2023-09-07T02:53:37;9.77;;;8.07;;
3487;SDS011;38546;48.170;11.724;2023-09-07T02:56:26;9.43;;;7.60;;
3487;SDS011;38546;48.170;11.724;2023-09-07T02:59:14;8.67;;;7.77;;
3487;SDS011;38546;48.170;11.724;2023-09-07T03:02:03;9.60;;;8.53;;
3487;SDS011;38546;48.170;11.724;2023-09-07T03:04:53;12.07;;;9.00;;
3487;SDS011;38546;48.170;11.724;2023-09-07T03:07:47;10.87;;;9.23;;
3487;SDS011;38546;48.170;11.724;2023-09-07T03:10:36;11.90;;;9.03;;
3487;SDS011;38546;48.170;11.724;2023-09-07T03:13:29;16.17;;;10.57;;
3487;SDS011;38546;48.170;11.724;2023-09-07T03:16:19;12.10;;;9.73;;
3487;SDS011;38546;48.170;11.724;2023-09-07T03:19:08;13.30;;;10.50;;
3487;SDS011;38546;48.170;11.724;2023-09-07T03:21:57;11.77;;;9.20;;
3487;SDS011;38546;48.170;11.724;2023-09-07T03:24:46;12.00;;;9.20;;
3487;SDS011;38546;48.170;11.724;2023-09-07T03:27:36;12.40;;;9.20;;
3487;SDS011;38546;48.170;11.724;2023-09-07T03:30:26;11.83;;;9.50;;
3487;SDS011;38546;48.170;11.724;2023-09-07T03:33:15;10.90;;;9.30;;
3487;SDS011;38546;48.170;11.724;2023-09-07T03:36:03;12.83;;;9.03;;
3487;SDS011;38546;48.170;11.724;2023-09-07T03:38:53;10.67;;;8.70;;
3487;SDS011;38546;48.170;11.724;2023-09-07T03:41:42;10.73;;;7.80;;
3487;SDS011;38546;48.170;11.724;2023-09-07T03:44:31;11.53;;;8.90;;
3487;SDS011;38546;48.170;11.724;2023-09-07T03:47:20;13.00;;;7.83;;
3487;SDS011;38546;48.170;11.724;2023-09-07T03:50:10;10.60;;;8.67;;
3487;SDS011;38546;48.170;11.724;2023-09-07T03:52:59;9.87;;;7.67;;
3487;SDS011;38546;48.170;11.724;2023-09-07T03:55:49;8.90;;;6.63;;
3487;SDS011;38546;48.170;11.724;2023-09-07T03:58:37;7.90;;;6.20;;
3487;SDS011;38546;48.170;11.724;2023-09-07T04:01:27;8.10;;;7.27;;
3487;SDS011;38546;48.170;11.724;2023-09-07T04:04:16;7.77;;;6.50;;
3487;SDS011;38546;48.170;11.724;2023-09-07T04:07:05;11.23;;;8.67;;
3487;SDS011;38546;48.170;11.724;2023-09-07T04:09:54;9.90;;;7.93;;
3487;SDS011;38546;48.170;11.724;2023-09-07T04:12:42;10.63;;;8.60;;
3487;SDS011;38546;48.170;11.724;2023-09-07T04:15:32;11.10;;;8.83;;
3487;SDS011;38546;48.170;11.724;2023-09-07T04:18:32;11.50;;;8.80;;
3487;SDS011;38546;48.170;11.724;2023-09-07T04:21:21;12.73;;;9.50;;
3487;SDS011;38546;48.170;11.724;2023-09-07T04:24:10;10.60;;;9.20;;
3487;SDS011;38546;48.170;11.724;2023-09-07T04:27:00;12.70;;;9.23;;
3487;SDS011;38546;48.170;11.724;2023-09-07T04:29:50;11.50;;;9.00;;
3487;SDS011;38546;48.170;11.724;2023-09-07T04:32:39;13.13;;;9.63;;
3487;SDS011;38546;48.170;11.724;2023-09-07T04:35:29;13.40;;;9.63;;
3487;SDS011;38546;48.170;11.724;2023-09-07T04:38:19;12.67;;;9.30;;
3487;SDS011;38546;48.170;11.724;2023-09-07T04:41:12;12.53;;;8.47;;
3487;SDS011;38546;48.170;11.724;2023-09-07T04:44:02;14.30;;;10.97;;
3487;SDS011;38546;48.170;11.724;2023-09-07T04:46:51;19.20;;;11.13;;
3487;SDS011;38546;48.170;11.724;2023-09-07T04:49:48;14.43;;;9.43;;
3487;SDS011;38546;48.170;11.724;2023-09-07T04:52:41;11.43;;;8.93;;
3487;SDS011;38546;48.170;11.724;2023-09-07T04:55:30;14.00;;;10.07;;
3487;SDS011;38546;48.170;11.724;2023-09-07T04:58:18;11.20;;;9.03;;
3487;SDS011;38546;48.170;11.724;2023-09-07T05:01:09;10.27;;;7.60;;
3487;SDS011;38546;48.170;11.724;2023-09-07T05:03:59;10.97;;;7.67;;
3487;SDS011;38546;48.170;11.724;2023-09-07T05:06:52;9.40;;;7.97;;
3487;SDS011;38546;48.170;11.724;2023-09-07T05:09:41;9.03;;;8.07;;
3487;SDS011;38546;48.170;11.724;2023-09-07T05:12:30;14.30;;;10.37;;
3487;SDS011;38546;48.170;11.724;2023-09-07T05:15:20;15.00;;;10.47;;
3487;SDS011;38546;48.170;11.724;2023-09-07T05:18:09;11.70;;;9.50;;
3487;SDS011;38546;48.170;11.724;2023-09-07T05:20:58;14.37;;;10.87;;
3487;SDS011;38546;48.170;11.724;2023-09-07T05:23:47;14.00;;;10.63;;
3487;SDS011;38546;48.170;11.724;2023-09-07T05:26:36;14.13;;;10.63;;
3487;SDS011;38546;48.170;11.724;2023-09-07T05:29:24;15.60;;;10.07;;
3487;SDS011;38546;48.170;11.724;2023-09-07T05:32:13;15.70;;;10.50;;
3487;SDS011;38546;48.170;11.724;2023-09-07T05:35:02;20.40;;;12.43;;
3487;SDS011;38546;48.170;11.724;2023-09-07T05:37:52;14.17;;;10.50;;
3487;SDS011;38546;48.170;11.724;2023-09-07T05:40:42;19.70;;;11.77;;
3487;SDS011;38546;48.170;11.724;2023-09-07T05:43:33;17.37;;;11.60;;
3487;SDS011;38546;48.170;11.724;2023-09-07T05:46:21;15.77;;;11.20;;
3487;SDS011;38546;48.170;11.724;2023-09-07T05:49:10;17.00;;;12.50;;
3487;SDS011;38546;48.170;11.724;2023-09-07T05:51:59;15.47;;;11.87;;
3487;SDS011;38546;48.170;11.724;2023-09-07T05:54:48;16.20;;;11.97;;
3487;SDS011;38546;48.170;11.724;2023-09-07T05:57:37;16.30;;;11.53;;
3487;SDS011;38546;48.170;11.724;2023-09-07T06:00:26;19.20;;;12.70;;
3487;SDS011;38546;48.170;11.724;2023-09-07T06:03:15;15.70;;;11.40;;
3487;SDS011;38546;48.170;11.724;2023-09-07T06:06:04;18.20;;;11.50;;
3487;SDS011;38546;48.170;11.724;2023-09-07T06:08:54;19.20;;;12.80;;
3487;SDS011;38546;48.170;11.724;2023-09-07T06:11:43;18.57;;;13.67;;
3487;SDS011;38546;48.170;11.724;2023-09-07T06:14:32;18.93;;;12.70;;
3487;SDS011;38546;48.170;11.724;2023-09-07T06:17:21;19.13;;;13.87;;
3487;SDS011;38546;48.170;11.724;2023-09-07T06:20:10;25.00;;;15.60;;
3487;SDS011;38546;48.170;11.724;2023-09-07T06:22:59;23.97;;;15.47;;
3487;SDS011;38546;48.170;11.724;2023-09-07T06:25:48;19.00;;;14.17;;
3487;SDS011;38546;48.170;11.724;2023-09-07T06:28:37;21.07;;;13.30;;
3487;SDS011;38546;48.170;11.724;2023-09-07T06:31:27;17.47;;;12.10;;
3487;SDS011;38546;48.170;11.724;2023-09-07T06:34:17;19.30;;;13.70;;
3487;SDS011;38546;48.170;11.724;2023-09-07T06:37:06;21.63;;;13.63;;
3487;SDS011;38546;48.170;11.724;2023-09-07T06:39:56;20.70;;;13.90;;
3487;SDS011;38546;48.170;11.724;2023-09-07T06:42:45;16.70;;;12.97;;
3487;SDS011;38546;48.170;11.724;2023-09-07T06:45:34;21.87;;;13.90;;
3487;SDS011;38546;48.170;11.724;2023-09-07T06:48:24;16.67;;;11.30;;
3487;SDS011;38546;48.170;11.724;2023-09-07T06:51:13;17.57;;;13.27;;
3487;SDS011;38546;48.170;11.724;2023-09-07T06:54:02;15.83;;;11.40;;
3487;SDS011;38546;48.170;11.724;2023-09-07T06:56:52;12.10;;;10.10;;
3487;SDS011;38546;48.170;11.724;2023-09-07T06:59:41;16.60;;;11.43;;
3487;SDS011;38546;48.170;11.724;2023-09-07T07:02:30;15.23;;;12.00;;
3487;SDS011;38546;48.170;11.724;2023-09-07T07:05:19;18.63;;;12.50;;
3487;SDS011;38546;48.170;11.724;2023-09-07T07:08:10;13.33;;;10.53;;
3487;SDS011;38546;48.170;11.724;2023-09-07T07:10:59;15.17;;;11.50;;
3487;SDS011;38546;48.170;11.724;2023-09-07T07:13:49;12.37;;;9.87;;
3487;SDS011;38546;48.170;11.724;2023-09-07T07:16:38;15.60;;;10.60;;
3487;SDS011;38546;48.170;11.724;2023-09-07T07:19:27;14.17;;;10.60;;
3487;SDS011;38546;48.170;11.724;2023-09-07T07:22:16;12.50;;;9.70;;
3487;SDS011;38546;48.170;11.724;2023-09-07T07:25:05;11.03;;;9.93;;
3487;SDS011;38546;48.170;11.724;2023-09-07T07:27:55;12.70;;;9.60;;
3487;SDS011;38546;48.170;11.724;2023-09-07T07:30:44;15.37;;;10.07;;
3487;SDS011;38546;48.170;11.724;2023-09-07T07:33:33;19.07;;;10.37;;
3487;SDS011;38546;48.170;11.724;2023-09-07T07:36:23;14.43;;;9.80;;
3487;SDS011;38546;48.170;11.724;2023-09-07T07:39:12;10.00;;;8.97;;
3487;SDS011;38546;48.170;11.724;2023-09-07T07:42:01;11.00;;;9.80;;
3487;SDS011;38546;48.170;11.724;2023-09-07T07:44:51;19.27;;;10.87;;
3487;SDS011;38546;48.170;11.724;2023-09-07T07:47:41;11.73;;;9.53;;
3487;SDS011;38546;48.170;11.724;2023-09-07T07:50:30;15.13;;;8.87;;
3487;SDS011;38546;48.170;11.724;2023-09-07T07:53:20;12.60;;;8.70;;
3487;SDS011;38546;48.170;11.724;2023-09-07T07:56:16;13.10;;;10.53;;
3487;SDS011;38546;48.170;11.724;2023-09-07T07:59:06;13.10;;;9.47;;
3487;SDS011;38546;48.170;11.724;2023-09-07T08:01:55;10.97;;;9.70;;
3487;SDS011;38546;48.170;11.724;2023-09-07T08:04:44;10.90;;;9.80;;
3487;SDS011;38546;48.170;11.724;2023-09-07T08:07:33;14.30;;;10.17;;
3487;SDS011;38546;48.170;11.724;2023-09-07T08:10:22;15.27;;;10.10;;
3487;SDS011;38546;48.170;11.724;2023-09-07T08:13:12;12.77;;;9.77;;
3487;SDS011;38546;48.170;11.724;2023-09-07T08:16:02;11.50;;;9.43;;
3487;SDS011;38546;48.170;11.724;2023-09-07T08:18:53;11.90;;;8.80;;
3487;SDS011;38546;48.170;11.724;2023-09-07T08:21:42;11.40;;;9.00;;
3487;SDS011;38546;48.170;11.724;2023-09-07T08:24:30;11.90;;;9.33;;
3487;SDS011;38546;48.170;11.724;2023-09-07T08:27:20;10.30;;;9.20;;
3487;SDS011;38546;48.170;11.724;2023-09-07T08:30:11;11.33;;;8.77;;
3487;SDS011;38546;48.170;11.724;2023-09-07T08:33:04;9.50;;;8.47;;
3487;SDS011;38546;48.170;11.724;2023-09-07T08:35:55;12.13;;;10.20;;
3487;SDS011;38546;48.170;11.724;2023-09-07T08:38:45;14.60;;;10.13;;
3487;SDS011;38546;48.170;11.724;2023-09-07T08:41:38;14.60;;;9.87;;
3487;SDS011;38546;48.170;11.724;2023-09-07T08:44:36;11.73;;;10.10;;
3487;SDS011;38546;48.170;11.724;2023-09-07T08:47:26;11.33;;;10.17;;
3487;SDS011;38546;48.170;11.724;2023-09-07T08:50:18;11.87;;;10.30;;
3487;SDS011;38546;48.170;11.724;2023-09-07T08:53:08;11.10;;;9.50;;
3487;SDS011;38546;48.170;11.724;2023-09-07T08:55:57;11.40;;;9.67;;
3487;SDS011;38546;48.170;11.724;2023-09-07T08:58:49;10.23;;;8.67;;
3487;SDS011;38546;48.170;11.724;2023-09-07T09:01:38;11.23;;;9.50;;
3487;SDS011;38546;48.170;11.724;2023-09-07T09:04:28;11.03;;;8.47;;
3487;SDS011;38546;48.170;11.724;2023-09-07T09:07:21;10.10;;;9.10;;
3487;SDS011;38546;48.170;11.724;2023-09-07T09:10:11;12.13;;;10.50;;
3487;SDS011;38546;48.170;11.724;2023-09-07T09:13:00;9.73;;;8.83;;
3487;SDS011;38546;48.170;11.724;2023-09-07T09:15:49;11.23;;;9.27;;
3487;SDS011;38546;48.170;11.724;2023-09-07T09:18:38;11.10;;;8.83;;
3487;SDS011;38546;48.170;11.724;2023-09-07T09:21:35;11.10;;;10.00;;
3487;SDS011;38546;48.170;11.724;2023-09-07T09:24:24;10.93;;;9.70;;
3487;SDS011;38546;48.170;11.724;2023-09-07T09:27:13;10.43;;;9.30;;
3487;SDS011;38546;48.170;11.724;2023-09-07T09:30:03;11.43;;;9.57;;
3487;SDS011;38546;48.170;11.724;2023-09-07T09:32:53;12.60;;;9.50;;
3487;SDS011;38546;48.170;11.724;2023-09-07T09:35:42;12.00;;;8.80;;
3487;SDS011;38546;48.170;11.724;2023-09-07T09:38:32;12.00;;;9.57;;
3487;SDS011;38546;48.170;11.724;2023-09-07T09:41:22;12.33;;;9.63;;
3487;SDS011;38546;48.170;11.724;2023-09-07T09:44:13;14.70;;;9.00;;
3487;SDS011;38546;48.170;11.724;2023-09-07T09:47:03;13.30;;;9.40;;
3487;SDS011;38546;48.170;11.724;2023-09-07T09:49:53;9.43;;;8.47;;
3487;SDS011;38546;48.170;11.724;2023-09-07T09:52:43;9.67;;;8.00;;
3487;SDS011;38546;48.170;11.724;2023-09-07T09:55:34;11.03;;;9.17;;
3487;SDS011;38546;48.170;11.724;2023-09-07T09:58:23;10.10;;;8.70;;
3487;SDS011;38546;48.170;11.724;2023-09-07T10:01:13;10.50;;;8.77;;
3487;SDS011;38546;48.170;11.724;2023-09-07T10:04:04;12.93;;;9.17;;
3487;SDS011;38546;48.170;11.724;2023-09-07T10:06:54;11.57;;;8.00;;
3487;SDS011;38546;48.170;11.724;2023-09-07T10:09:45;9.03;;;8.20;;
3487;SDS011;38546;48.170;11.724;2023-09-07T10:12:39;10.70;;;8.73;;
3487;SDS011;38546;48.170;11.724;2023-09-07T10:15:33;10.83;;;9.67;;
3487;SDS011;38546;48.170;11.724;2023-09-07T10:18:32;9.43;;;8.47;;
3487;SDS011;38546;48.170;11.724;2023-09-07T10:21:24;13.07;;;9.77;;
3487;SDS011;38546;48.170;11.724;2023-09-07T10:24:26;9.70;;;8.80;;
3487;SDS011;38546;48.170;11.724;2023-09-07T10:27:24;10.27;;;8.60;;
3487;SDS011;38546;48.170;11.724;2023-09-07T10:30:13;11.27;;;8.33;;
3487;SDS011;38546;48.170;11.724;2023-09-07T10:33:04;9.67;;;8.63;;
3487;SDS011;38546;48.170;11.724;2023-09-07T10:35:53;9.17;;;8.37;;
3487;SDS011;38546;48.170;11.724;2023-09-07T10:38:42;10.20;;;9.13;;
3487;SDS011;38546;48.170;11.724;2023-09-07T10:41:41;10.10;;;8.90;;
3487;SDS011;38546;48.170;11.724;2023-09-07T10:44:31;9.43;;;8.40;;
3487;SDS011;38546;48.170;11.724;2023-09-07T10:47:21;9.77;;;8.77;;
3487;SDS011;38546;48.170;11.724;2023-09-07T10:50:11;9.17;;;7.87;;
3487;SDS011;38546;48.170;11.724;2023-09-07T10:53:02;8.57;;;7.77;;
3487;SDS011;38546;48.170;11.724;2023-09-07T10:55:51;9.93;;;8.20;;
3487;SDS011;38546;48.170;11.724;2023-09-07T10:58:40;9.70;;;7.67;;
3487;SDS011;38546;48.170;11.724;2023-09-07T11:01:32;9.50;;;8.57;;
3487;SDS011;38546;48.170;11.724;2023-09-07T11:04:21;10.60;;;9.20;;
3487;SDS011;38546;48.170;11.724;2023-09-07T11:07:10;8.70;;;7.90;;
3487;SDS011;38546;48.170;11.724;2023-09-07T11:10:00;9.27;;;8.37;;
3487;SDS011;38546;48.170;11.724;2023-09-07T11:12:52;10.30;;;7.83;;
3487;SDS011;38546;48.170;11.724;2023-09-07T11:15:42;14.33;;;7.97;;
3487;SDS011;38546;48.170;11.724;2023-09-07T11:18:31;8.73;;;7.80;;
3487;SDS011;38546;48.170;11.724;2023-09-07T11:21:25;11.17;;;8.30;;
3487;SDS011;38546;48.170;11.724;2023-09-07T11:24:14;11.60;;;8.70;;
3487;SDS011;38546;48.170;11.724;2023-09-07T11:27:05;10.17;;;8.83;;
3487;SDS011;38546;48.170;11.724;2023-09-07T11:29:56;9.07;;;8.03;;
3487;SDS011;38546;48.170;11.724;2023-09-07T11:32:46;10.83;;;9.50;;
3487;SDS011;38546;48.170;11.724;2023-09-07T11:35:36;10.90;;;8.63;;
3487;SDS011;38546;48.170;11.724;2023-09-07T11:38:28;9.73;;;8.83;;
3487;SDS011;38546;48.170;11.724;2023-09-07T11:41:23;10.30;;;8.23;;
3487;SDS011;38546;48.170;11.724;2023-09-07T11:44:12;10.60;;;9.00;;
3487;SDS011;38546;48.170;11.724;2023-09-07T11:47:01;8.73;;;7.87;;
3487;SDS011;38546;48.170;11.724;2023-09-07T11:49:51;11.43;;;8.33;;
3487;SDS011;38546;48.170;11.724;2023-09-07T11:52:41;16.23;;;8.93;;
3487;SDS011;38546;48.170;11.724;2023-09-07T11:55:31;12.03;;;7.67;;
3487;SDS011;38546;48.170;11.724;2023-09-07T11:58:21;12.53;;;8.53;;
3487;SDS011;38546;48.170;11.724;2023-09-07T12:01:10;9.23;;;8.23;;
3487;SDS011;38546;48.170;11.724;2023-09-07T12:03:59;10.73;;;8.50;;
3487;SDS011;38546;48.170;11.724;2023-09-07T12:06:48;9.67;;;8.73;;
3487;SDS011;38546;48.170;11.724;2023-09-07T12:09:38;11.20;;;8.47;;
3487;SDS011;38546;48.170;11.724;2023-09-07T12:12:27;10.77;;;8.93;;
3487;SDS011;38546;48.170;11.724;2023-09-07T12:15:16;9.50;;;8.50;;
3487;SDS011;38546;48.170;11.724;2023-09-07T12:18:05;8.80;;;8.00;;
3487;SDS011;38546;48.170;11.724;2023-09-07T12:20:55;8.53;;;7.83;;
3487;SDS011;38546;48.170;11.724;2023-09-07T12:23:44;13.70;;;9.13;;
3487;SDS011;38546;48.170;11.724;2023-09-07T12:26:33;11.20;;;8.60;;
3487;SDS011;38546;48.170;11.724;2023-09-07T12:29:22;9.03;;;8.20;;
3487;SDS011;38546;48.170;11.724;2023-09-07T12:32:11;8.77;;;7.87;;
3487;SDS011;38546;48.170;11.724;2023-09-07T12:35:00;9.27;;;8.37;;
3487;SDS011;38546;48.170;11.724;2023-09-07T12:37:49;11.40;;;8.07;;
3487;SDS011;38546;48.170;11.724;2023-09-07T12:40:39;9.80;;;8.10;;
3487;SDS011;38546;48.170;11.724;2023-09-07T12:43:28;12.07;;;8.60;;
3487;SDS011;38546;48.170;11.724;2023-09-07T12:46:17;9.60;;;8.60;;
3487;SDS011;38546;48.170;11.724;2023-09-07T12:49:06;9.90;;;8.03;;
3487;SDS011;38546;48.170;11.724;2023-09-07T12:51:56;10.30;;;8.57;;
3487;SDS011;38546;48.170;11.724;2023-09-07T12:54:45;9.87;;;8.83;;
3487;SDS011;38546;48.170;11.724;2023-09-07T12:57:35;8.60;;;7.80;;
3487;SDS011;38546;48.170;11.724;2023-09-07T13:00:24;10.23;;;7.83;;
3487;SDS011;38546;48.170;11.724;2023-09-07T13:03:14;12.07;;;8.20;;
3487;SDS011;38546;48.170;11.724;2023-09-07T13:06:03;7.93;;;6.80;;
3487;SDS011;38546;48.170;11.724;2023-09-07T13:08:52;7.10;;;6.40;;
3487;SDS011;38546;48.170;11.724;2023-09-07T13:11:41;8.60;;;7.63;;
3487;SDS011;38546;48.170;11.724;2023-09-07T13:14:30;7.93;;;7.10;;
3487;SDS011;38546;48.170;11.724;2023-09-07T13:17:19;12.80;;;7.50;;
3487;SDS011;38546;48.170;11.724;2023-09-07T13:20:09;7.97;;;7.17;;
3487;SDS011;38546;48.170;11.724;2023-09-07T13:23:00;7.33;;;6.50;;
3487;SDS011;38546;48.170;11.724;2023-09-07T13:25:49;8.63;;;6.63;;
3487;SDS011;38546;48.170;11.724;2023-09-07T13:28:38;9.30;;;7.23;;
3487;SDS011;38546;48.170;11.724;2023-09-07T13:31:27;7.70;;;6.27;;
3487;SDS011;38546;48.170;11.724;2023-09-07T13:34:17;8.77;;;6.77;;
3487;SDS011;38546;48.170;11.724;2023-09-07T13:37:06;8.87;;;7.20;;
3487;SDS011;38546;48.170;11.724;2023-09-07T13:39:55;11.03;;;7.10;;
3487;SDS011;38546;48.170;11.724;2023-09-07T13:42:45;14.13;;;6.73;;
3487;SDS011;38546;48.170;11.724;2023-09-07T13:45:36;7.23;;;6.47;;
3487;SDS011;38546;48.170;11.724;2023-09-07T13:48:26;8.00;;;7.10;;
3487;SDS011;38546;48.170;11.724;2023-09-07T13:51:15;8.77;;;6.67;;
3487;SDS011;38546;48.170;11.724;2023-09-07T13:54:04;8.30;;;6.83;;
3487;SDS011;38546;48.170;11.724;2023-09-07T13:56:57;9.37;;;6.67;;
3487;SDS011;38546;48.170;11.724;2023-09-07T13:59:46;8.90;;;6.57;;
3487;SDS011;38546;48.170;11.724;2023-09-07T14:02:35;9.43;;;7.70;;
3487;SDS011;38546;48.170;11.724;2023-09-07T14:05:24;10.37;;;7.00;;
3487;SDS011;38546;48.170;11.724;2023-09-07T14:08:13;7.30;;;6.60;;
3487;SDS011;38546;48.170;11.724;2023-09-07T14:11:02;7.60;;;6.90;;
3487;SDS011;38546;48.170;11.724;2023-09-07T14:13:51;8.67;;;7.10;;
3487;SDS011;38546;48.170;11.724;2023-09-07T14:16:40;7.10;;;6.40;;
3487;SDS011;38546;48.170;11.724;2023-09-07T14:19:29;7.00;;;6.30;;
3487;SDS011;38546;48.170;11.724;2023-09-07T14:22:21;7.60;;;6.33;;
3487;SDS011;38546;48.170;11.724;2023-09-07T14:25:10;9.63;;;6.07;;
3487;SDS011;38546;48.170;11.724;2023-09-07T14:27:59;8.60;;;5.70;;
3487;SDS011;38546;48.170;11.724;2023-09-07T14:30:49;7.20;;;6.20;;
3487;SDS011;38546;48.170;11.724;2023-09-07T14:33:38;7.60;;;6.20;;
3487;SDS011;38546;48.170;11.724;2023-09-07T14:36:30;7.13;;;5.77;;
3487;SDS011;38546;48.170;11.724;2023-09-07T14:39:19;7.87;;;6.30;;
3487;SDS011;38546;48.170;11.724;2023-09-07T14:42:12;12.37;;;6.67;;
3487;SDS011;38546;48.170;11.724;2023-09-07T14:45:05;7.70;;;6.00;;
3487;SDS011;38546;48.170;11.724;2023-09-07T14:47:55;7.20;;;6.27;;
3487;SDS011;38546;48.170;11.724;2023-09-07T14:50:44;6.00;;;5.50;;
3487;SDS011;38546;48.170;11.724;2023-09-07T14:53:34;6.50;;;5.83;;
3487;SDS011;38546;48.170;11.724;2023-09-07T14:56:24;6.97;;;6.20;;
3487;SDS011;38546;48.170;11.724;2023-09-07T14:59:13;10.17;;;6.80;;
3487;SDS011;38546;48.170;11.724;2023-09-07T15:02:02;7.23;;;6.20;;
3487;SDS011;38546;48.170;11.724;2023-09-07T15:04:52;13.70;;;6.47;;
3487;SDS011;38546;48.170;11.724;2023-09-07T15:07:41;8.53;;;5.77;;
3487;SDS011;38546;48.170;11.724;2023-09-07T15:10:30;6.67;;;5.97;;
3487;SDS011;38546;48.170;11.724;2023-09-07T15:13:22;12.23;;;6.23;;
3487;SDS011;38546;48.170;11.724;2023-09-07T15:16:11;6.67;;;5.97;;
3487;SDS011;38546;48.170;11.724;2023-09-07T15:19:01;7.13;;;6.43;;
3487;SDS011;38546;48.170;11.724;2023-09-07T15:21:51;6.40;;;5.60;;
3487;SDS011;38546;48.170;11.724;2023-09-07T15:24:40;6.83;;;6.17;;
3487;SDS011;38546;48.170;11.724;2023-09-07T15:27:30;7.10;;;5.50;;
3487;SDS011;38546;48.170;11.724;2023-09-07T15:30:19;6.30;;;5.70;;
3487;SDS011;38546;48.170;11.724;2023-09-07T15:33:12;6.50;;;5.70;;
3487;SDS011;38546;48.170;11.724;2023-09-07T15:36:01;6.60;;;5.80;;
3487;SDS011;38546;48.170;11.724;2023-09-07T15:38:50;6.03;;;5.53;;
3487;SDS011;38546;48.170;11.724;2023-09-07T15:41:39;6.27;;;5.67;;
3487;SDS011;38546;48.170;11.724;2023-09-07T15:44:28;6.00;;;5.50;;
3487;SDS011;38546;48.170;11.724;2023-09-07T15:47:17;8.03;;;6.33;;
3487;SDS011;38546;48.170;11.724;2023-09-07T15:50:07;6.77;;;6.07;;
3487;SDS011;38546;48.170;11.724;2023-09-07T15:52:58;5.40;;;4.90;;
3487;SDS011;38546;48.170;11.724;2023-09-07T15:55:46;7.20;;;6.50;;
3487;SDS011;38546;48.170;11.724;2023-09-07T15:58:36;7.37;;;6.67;;
3487;SDS011;38546;48.170;11.724;2023-09-07T16:01:25;9.40;;;6.67;;
3487;SDS011;38546;48.170;11.724;2023-09-07T16:04:14;8.27;;;6.00;;
3487;SDS011;38546;48.170;11.724;2023-09-07T16:07:04;7.00;;;6.03;;
3487;SDS011;38546;48.170;11.724;2023-09-07T16:09:53;7.40;;;5.73;;
3487;SDS011;38546;48.170;11.724;2023-09-07T16:12:43;6.37;;;5.40;;
3487;SDS011;38546;48.170;11.724;2023-09-07T16:15:32;6.07;;;5.47;;
3487;SDS011;38546;48.170;11.724;2023-09-07T16:18:21;7.07;;;6.00;;
3487;SDS011;38546;48.170;11.724;2023-09-07T16:21:10;6.47;;;5.70;;
3487;SDS011;38546;48.170;11.724;2023-09-07T16:24:03;6.13;;;5.17;;
3487;SDS011;38546;48.170;11.724;2023-09-07T16:26:53;6.97;;;6.37;;
3487;SDS011;38546;48.170;11.724;2023-09-07T16:29:42;6.60;;;5.90;;
3487;SDS011;38546;48.170;11.724;2023-09-07T16:32:33;11.03;;;5.63;;
3487;SDS011;38546;48.170;11.724;2023-09-07T16:35:23;6.93;;;5.60;;
3487;SDS011;38546;48.170;11.724;2023-09-07T16:38:11;7.03;;;6.33;;
3487;SDS011;38546;48.170;11.724;2023-09-07T16:41:05;6.20;;;5.60;;
3487;SDS011;38546;48.170;11.724;2023-09-07T16:43:55;6.63;;;6.03;;
3487;SDS011;38546;48.170;11.724;2023-09-07T16:46:44;7.07;;;6.37;;
3487;SDS011;38546;48.170;11.724;2023-09-07T16:49:33;6.27;;;5.67;;